Time;durP1;ratioP1;P1;durP2;ratioP2;P2;SDS_P1;SDS_P2;PMS_P1;PMS_P2;Temp;Humidity;BMP_temperature;BMP_pressure;BME280_temperature;BME280_humidity;BME280_pressure;Samples;Min_cycle;Max_cycle;Signal;HPM_P1;HPM_P2
2022/11/09 00:00:44;;;;;;;3.80;1.08;;;;;;;16.41;58.85;99391.88;5035381;28;20057;-76
2022/11/09 00:03:12;;;;;;;2.60;1.17;;;;;;;16.56;58.32;99392.06;5035089;28;20121;-76
2022/11/09 00:05:40;;;;;;;3.42;1.10;;;;;;;16.51;58.36;99387.59;5035623;28;20060;-76
2022/11/09 00:08:08;;;;;;;2.25;1.10;;;;;;;16.46;58.41;99390.72;5033865;28;20050;-76
2022/11/09 00:10:37;;;;;;;1.80;1.10;;;;;;;16.43;59.18;99388.69;5035339;28;20068;-76
2022/11/09 00:13:05;;;;;;;2.00;1.00;;;;;;;16.49;58.42;99380.75;5035225;28;20057;-76
2022/11/09 00:15:35;;;;;;;2.63;1.42;;;;;;;16.49;58.29;99386.38;5035100;28;20057;-76
2022/11/09 00:18:05;;;;;;;1.65;0.95;;;;;;;16.51;58.70;99378.38;5035556;28;20414;-76
2022/11/09 00:20:32;;;;;;;2.50;1.30;;;;;;;16.44;58.92;99384.69;5035304;28;20072;-76
2022/11/09 00:23:01;;;;;;;2.13;1.10;;;;;;;16.44;59.28;99381.88;5034219;28;20053;-76
2022/11/09 00:25:28;;;;;;;3.22;1.27;;;;;;;16.53;58.84;99384.41;5027520;28;20061;-76
2022/11/09 00:27:59;;;;;;;1.88;1.15;;;;;;;16.46;58.55;99379.47;5035619;28;20545;-76
2022/11/09 00:30:27;;;;;;;2.92;1.30;;;;;;;16.52;58.52;99383.59;5035520;28;20413;-76
2022/11/09 00:32:56;;;;;;;2.72;1.40;;;;;;;16.53;58.77;99376.78;5034938;28;20053;-76
2022/11/09 00:35:27;;;;;;;2.47;1.23;;;;;;;16.56;58.26;99378.81;5035973;28;20053;-76
2022/11/09 00:37:55;;;;;;;3.70;1.20;;;;;;;16.52;59.04;99358.28;5034615;28;20500;-76
2022/11/09 00:40:22;;;;;;;2.45;0.93;;;;;;;16.56;59.09;99358.34;5036573;28;20080;-76
2022/11/09 00:42:49;;;;;;;2.13;1.17;;;;;;;16.35;59.20;99361.69;5036581;28;20053;-76
2022/11/09 00:45:19;;;;;;;3.05;1.40;;;;;;;16.43;59.49;99366.22;5037465;28;20068;-76
2022/11/09 00:47:49;;;;;;;1.98;1.10;;;;;;;16.49;59.39;99366.69;5038155;28;20053;-75
2022/11/09 00:50:18;;;;;;;2.65;1.30;;;;;;;16.53;58.85;99385.22;5053098;28;20056;-76
2022/11/09 00:52:47;;;;;;;3.10;1.23;;;;;;;16.43;59.32;99383.88;5049336;28;20049;-76
2022/11/09 00:55:15;;;;;;;1.83;1.07;;;;;;;16.41;59.47;99385.44;5057495;28;20037;-78
2022/11/09 00:57:42;;;;;;;3.88;1.20;;;;;;;16.47;59.23;99378.31;5058337;28;20075;-77
2022/11/09 01:00:11;;;;;;;2.83;1.20;;;;;;;16.50;58.95;99377.53;5057668;28;20061;-77
2022/11/09 01:02:38;;;;;;;1.65;0.75;;;;;;;16.36;59.17;99371.75;5057797;28;20037;-76
2022/11/09 01:05:06;;;;;;;2.55;1.10;;;;;;;16.39;59.49;99370.97;5057600;28;20067;-76
2022/11/09 01:07:36;;;;;;;3.78;1.20;;;;;;;16.34;59.43;99374.13;5057584;28;20049;-77
2022/11/09 01:10:07;;;;;;;2.75;1.27;;;;;;;16.48;59.91;99376.31;5055974;28;20059;-76
2022/11/09 01:12:34;;;;;;;3.45;1.20;;;;;;;16.43;59.95;99383.88;5057238;28;20053;-76
2022/11/09 01:15:05;;;;;;;1.85;0.98;;;;;;;16.43;59.77;99389.50;5055672;28;20059;-75
2022/11/09 01:17:32;;;;;;;2.28;1.25;;;;;;;16.47;59.46;99380.31;5054606;28;20048;-76
2022/11/09 01:20:04;;;;;;;3.20;1.05;;;;;;;16.51;59.74;99386.81;5038277;28;20069;-76
2022/11/09 01:22:31;;;;;;;2.25;1.30;;;;;;;16.32;60.24;99382.94;5034585;28;20060;-75
2022/11/09 01:25:00;;;;;;;4.45;1.27;;;;;;;16.11;60.72;99380.63;5026813;28;20046;-76
2022/11/09 01:27:27;;;;;;;2.90;1.10;;;;;;;16.32;60.54;99362.47;5016601;28;20069;-76
2022/11/09 01:29:54;;;;;;;1.83;1.30;;;;;;;16.28;60.52;99384.06;5034197;28;20057;-76
2022/11/09 01:32:22;;;;;;;2.47;1.10;;;;;;;16.34;60.79;99374.13;5033171;28;20053;-76
2022/11/09 01:34:49;;;;;;;2.00;1.25;;;;;;;16.31;60.51;99377.69;5033731;28;20509;-75
2022/11/09 01:37:16;;;;;;;2.22;1.20;;;;;;;16.27;60.96;99369.19;5033075;28;20072;-76
2022/11/09 01:39:44;;;;;;;2.10;1.30;;;;;;;16.19;61.09;99371.13;5033983;28;20072;-76
2022/11/09 01:42:14;;;;;;;2.30;1.27;;;;;;;16.23;61.32;99373.94;5033009;28;20069;-76
2022/11/09 01:44:41;;;;;;;3.08;1.58;;;;;;;16.22;60.77;99377.97;5033567;28;20064;-76
2022/11/09 01:47:14;;;;;;;2.67;1.23;;;;;;;16.13;61.19;99380.25;5033307;28;20053;-75
2022/11/09 01:49:47;;;;;;;3.25;1.38;;;;;;;16.22;60.85;99392.81;5033064;28;20061;-76
2022/11/09 01:52:20;;;;;;;3.20;1.40;;;;;;;16.04;61.36;99372.06;5029056;28;20057;-76
2022/11/09 01:54:50;;;;;;;2.58;1.27;;;;;;;16.15;61.05;99386.31;5032171;28;20058;-76
2022/11/09 01:57:28;;;;;;;2.90;1.40;;;;;;;16.09;61.85;99391.44;5032731;28;20080;-76
2022/11/09 01:59:59;;;;;;;3.15;1.20;;;;;;;16.07;61.77;99393.00;5032522;28;20068;-76
2022/11/09 02:02:26;;;;;;;2.08;1.23;;;;;;;16.05;61.70;99379.31;5033164;28;20072;-76
2022/11/09 02:05:01;;;;;;;3.38;1.20;;;;;;;16.13;60.94;99383.06;5032772;28;20053;-76
2022/11/09 02:07:29;;;;;;;1.90;1.17;;;;;;;16.07;61.39;99376.94;5032000;28;20054;-76
2022/11/09 02:10:03;;;;;;;2.13;1.20;;;;;;;16.08;61.31;99377.75;5032849;28;20057;-76
2022/11/09 02:12:35;;;;;;;1.45;1.05;;;;;;;16.15;61.18;99375.88;5029393;28;20057;-76
2022/11/09 02:15:05;;;;;;;3.53;1.02;;;;;;;16.05;61.02;99382.13;5031974;28;20053;-76
2022/11/09 02:17:34;;;;;;;2.70;1.33;;;;;;;16.05;60.94;99378.53;5032444;28;20421;-76
2022/11/09 02:20:04;;;;;;;2.73;1.40;;;;;;;15.95;61.72;99382.78;5032869;28;20423;-76
2022/11/09 02:22:33;;;;;;;2.28;1.20;;;;;;;16.03;61.22;99387.31;5014318;28;20054;-76
2022/11/09 02:25:00;;;;;;;2.25;1.23;;;;;;;15.98;61.71;99374.41;5013278;28;20065;-76
2022/11/09 02:27:31;;;;;;;2.47;1.27;;;;;;;15.99;61.16;99387.25;5012843;28;20509;-76
2022/11/09 02:30:00;;;;;;;1.85;1.13;;;;;;;16.07;61.55;99370.53;5013288;28;20058;-76
2022/11/09 02:32:30;;;;;;;1.60;0.95;;;;;;;16.07;61.50;99382.56;5013090;28;20062;-76
2022/11/09 02:35:00;;;;;;;2.00;1.00;;;;;;;15.95;61.28;99366.72;5014607;28;20064;-76
2022/11/09 02:37:34;;;;;;;2.17;1.33;;;;;;;15.95;61.58;99374.34;5027032;28;20065;-76
2022/11/09 02:40:07;;;;;;;3.33;1.35;;;;;;;15.86;61.56;99385.84;5033856;28;20064;-76
2022/11/09 02:42:35;;;;;;;2.20;1.20;;;;;;;15.96;62.19;99370.38;5034361;28;20418;-76
2022/11/09 02:45:02;;;;;;;2.83;1.50;;;;;;;15.94;62.20;99365.13;5034416;28;20053;-76
2022/11/09 02:47:30;;;;;;;3.05;1.20;;;;;;;15.92;61.89;99364.69;5035301;28;20061;-75
2022/11/09 02:49:57;;;;;;;2.25;1.20;;;;;;;15.96;61.66;99364.75;5050161;28;20053;-76
2022/11/09 02:52:25;;;;;;;2.00;1.20;;;;;;;15.89;62.46;99364.63;5052581;28;20063;-77
2022/11/09 02:54:52;;;;;;;2.40;1.20;;;;;;;15.85;61.94;99361.75;5053622;28;20059;-77
2022/11/09 02:57:21;;;;;;;1.83;1.30;;;;;;;15.89;62.11;99370.25;5055398;28;20054;-77
2022/11/09 02:59:48;;;;;;;3.47;1.30;;;;;;;15.80;62.65;99371.31;5056147;28;20037;-76
2022/11/09 03:02:15;;;;;;;1.42;1.05;;;;;;;15.89;61.83;99378.66;5055385;28;20041;-77
2022/11/09 03:04:46;;;;;;;2.33;1.20;;;;;;;15.86;61.92;99377.44;5055924;28;20045;-76
2022/11/09 03:07:13;;;;;;;3.25;1.33;;;;;;;15.87;62.20;99369.81;5055768;28;20037;-76
2022/11/09 03:09:41;;;;;;;2.20;1.15;;;;;;;15.89;62.87;99371.03;5053652;28;20064;-77
2022/11/09 03:14:54;;;;;;;4.85;1.60;;;;;;;15.84;62.33;99368.56;5053056;28;20057;-79
2022/11/09 03:17:21;;;;;;;3.22;1.40;;;;;;;15.77;62.67;99368.44;5032030;28;20446;-79
2022/11/09 03:19:48;;;;;;;3.00;1.23;;;;;;;15.82;62.32;99379.38;5031393;28;20064;-80
2022/11/09 03:22:16;;;;;;;2.60;1.40;;;;;;;15.79;63.01;99372.53;5031745;28;20061;-80
2022/11/09 03:24:43;;;;;;;1.98;1.20;;;;;;;15.74;62.46;99375.63;5024166;28;20505;-80
2022/11/09 03:27:10;;;;;;;3.00;1.30;;;;;;;15.65;63.33;99377.88;5012643;28;20065;-80
2022/11/09 03:29:38;;;;;;;4.32;1.50;;;;;;;15.61;63.71;99379.81;5011484;28;20065;-79
2022/11/09 03:32:10;;;;;;;2.58;1.25;;;;;;;15.68;62.91;99385.53;5011756;28;20058;-80
2022/11/09 03:34:37;;;;;;;2.55;1.00;;;;;;;15.63;63.49;99375.44;5012743;28;20073;-79
2022/11/09 03:37:05;;;;;;;3.40;1.50;;;;;;;15.57;63.84;99370.50;5032168;28;20061;-80
2022/11/09 03:39:32;;;;;;;2.65;1.30;;;;;;;15.58;63.66;99369.31;5031428;28;20057;-79
2022/11/09 03:41:59;;;;;;;2.17;1.25;;;;;;;15.62;64.21;99372.97;5031494;28;20478;-80
2022/11/09 03:44:26;;;;;;;3.53;1.35;;;;;;;15.65;63.79;99372.25;5031507;28;20053;-80
2022/11/09 03:46:54;;;;;;;2.00;1.15;;;;;;;15.60;64.09;99378.16;5031418;28;20061;-80
2022/11/09 03:49:25;;;;;;;2.75;1.42;;;;;;;15.69;63.53;99377.94;5030146;28;20053;-79
2022/11/09 03:51:55;;;;;;;3.95;1.50;;;;;;;15.62;63.75;99390.66;5031640;28;20062;-80
2022/11/09 03:54:23;;;;;;;2.58;1.25;;;;;;;15.61;63.32;99389.03;5031321;28;20497;-79
2022/11/09 03:56:50;;;;;;;3.00;1.35;;;;;;;15.69;63.62;99395.56;5031360;28;20061;-80
2022/11/09 03:59:17;;;;;;;2.60;1.33;;;;;;;15.65;64.17;99389.09;5031839;28;20483;-80
2022/11/09 04:01:45;;;;;;;4.20;1.38;;;;;;;15.64;63.32;99395.88;5031472;28;20068;-79
2022/11/09 04:04:12;;;;;;;3.25;1.20;;;;;;;15.60;64.01;99403.44;5030460;28;20425;-80
2022/11/09 04:06:41;;;;;;;3.47;1.60;;;;;;;15.59;64.45;99387.78;5034201;28;20486;-81
2022/11/09 04:09:11;;;;;;;4.00;1.10;;;;;;;15.64;64.11;99390.25;5034937;28;20061;-79
2022/11/09 04:11:39;;;;;;;2.65;1.30;;;;;;;15.74;63.91;99392.47;5035031;28;20080;-80
2022/11/09 04:14:06;;;;;;;3.08;1.50;;;;;;;15.71;64.08;99403.63;5034761;28;20053;-80
2022/11/09 04:16:35;;;;;;;3.20;1.52;;;;;;;15.78;63.80;99400.97;5035144;28;20080;-80
2022/11/09 04:19:03;;;;;;;;;;;;;;;15.79;63.58;99411.81;5028384;28;20060;-80
2022/11/09 04:21:32;;;;;;;2.83;1.48;;;;;;;15.76;64.46;99398.53;5034770;28;19921;-79
2022/11/09 04:24:01;;;;;;;2.83;1.10;;;;;;;15.78;64.00;99386.91;5035160;28;20053;-79
2022/11/09 04:26:28;;;;;;;3.17;1.20;;;;;;;15.89;63.84;99396.31;5035482;28;20072;-79
2022/11/09 04:28:56;;;;;;;2.78;1.17;;;;;;;15.83;63.79;99395.00;5035264;28;20418;-80
2022/11/09 04:34:04;;;;;;;1.77;0.98;;;;;;;15.85;64.53;99398.25;5034781;28;20073;-81
2022/11/09 04:36:31;;;;;;;1.70;1.20;;;;;;;15.86;64.23;99402.69;5035065;28;20517;-79
2022/11/09 04:38:59;;;;;;;1.90;1.40;;;;;;;15.97;63.48;99409.28;5036072;28;20053;-80
2022/11/09 04:41:28;;;;;;;3.33;1.20;;;;;;;15.86;63.65;99404.72;5035885;28;20394;-79
2022/11/09 04:43:56;;;;;;;3.38;1.60;;;;;;;15.97;63.24;99388.81;5036520;28;20053;-79
2022/11/09 04:46:23;;;;;;;2.67;1.40;;;;;;;15.86;63.33;99391.47;5036171;28;20049;-79
2022/11/09 04:48:50;;;;;;;3.20;1.35;;;;;;;15.78;63.50;99395.34;5034539;28;20053;-80
2022/11/09 04:51:18;;;;;;;2.47;1.08;;;;;;;15.85;63.85;99403.88;5058809;28;20048;-79
2022/11/09 04:53:45;;;;;;;3.08;1.00;;;;;;;15.76;63.85;99404.13;5058720;28;20052;-79
2022/11/09 04:56:13;;;;;;;3.08;1.10;;;;;;;15.85;62.82;99408.69;5057540;28;20041;-79
2022/11/09 04:58:42;;;;;;;2.08;1.10;;;;;;;15.90;62.69;99395.16;5058166;28;20063;-79
2022/11/09 05:01:12;;;;;;;3.13;1.10;;;;;;;15.89;62.40;99410.38;5058013;28;20046;-79
2022/11/09 05:03:40;;;;;;;4.30;1.15;;;;;;;15.90;62.07;99414.81;5057039;28;20050;-78
2022/11/09 05:08:48;;;;;;;3.90;1.20;;;;;;;15.84;62.48;99407.88;5056267;28;20053;-79
2022/11/09 05:11:16;;;;;;;2.50;0.90;;;;;;;15.95;62.65;99394.00;5056964;28;20483;-81
2022/11/09 05:13:45;;;;;;;2.28;1.27;;;;;;;15.86;62.37;99404.72;5056753;28;20061;-78
2022/11/09 05:16:12;;;;;;;4.10;1.27;;;;;;;15.87;62.20;99407.13;5044893;28;20053;-80
2022/11/09 05:18:40;;;;;;;3.97;1.00;;;;;;;16.00;62.20;99424.56;5013542;28;20060;-81
2022/11/09 05:21:07;;;;;;;2.63;1.10;;;;;;;15.91;62.06;99413.59;5014222;28;20065;-81
2022/11/09 05:26:19;;;;;;;2.22;0.77;;;;;;;15.97;61.88;99419.72;5019680;28;20385;-79
2022/11/09 05:28:48;;;;;;;3.75;1.20;;;;;;;16.02;61.64;99416.56;5014174;28;20062;-79
2022/11/09 05:31:15;;;;;;;3.63;1.13;;;;;;;15.89;61.79;99415.97;5016269;28;20508;-80
2022/11/09 05:33:42;;;;;;;2.08;1.10;;;;;;;16.07;61.67;99432.31;5031355;28;20053;-79
2022/11/09 05:36:10;;;;;;;2.33;1.02;;;;;;;16.06;61.57;99437.09;5025940;28;20869;-79
2022/11/09 05:38:37;;;;;;;2.90;1.30;;;;;;;16.07;61.72;99427.50;5032973;28;20053;-79
2022/11/09 05:41:05;;;;;;;2.83;1.77;;;;;;;16.09;62.14;99441.19;5032452;28;20060;-79
2022/11/09 05:43:32;;;;;;;2.30;1.30;;;;;;;16.13;61.70;99444.88;5033098;28;20058;-80
2022/11/09 05:46:01;;;;;;;2.95;1.40;;;;;;;16.02;62.75;99433.44;5032912;28;20053;-79
2022/11/09 05:48:28;;;;;;;3.23;1.23;;;;;;;15.95;62.29;99430.53;5033057;28;20064;-80
2022/11/09 05:50:57;;;;;;;2.50;1.10;;;;;;;15.87;63.32;99440.00;5027546;28;20493;-80
2022/11/09 05:53:24;;;;;;;2.50;1.07;;;;;;;15.81;63.71;99443.16;5033351;28;20072;-80
2022/11/09 05:55:52;;;;;;;3.90;1.52;;;;;;;15.71;64.78;99442.94;5032453;28;20060;-79
2022/11/09 05:58:19;;;;;;;3.92;1.40;;;;;;;15.59;64.70;99441.91;5031739;28;20516;-79
2022/11/09 06:00:46;;;;;;;4.55;1.17;;;;;;;15.56;64.67;99437.06;5030254;28;20057;-79
2022/11/09 06:03:15;;;;;;;3.40;1.30;;;;;;;15.36;63.78;99443.91;5033479;28;20057;-79
2022/11/09 06:05:43;;;;;;;4.38;1.45;;;;;;;15.35;64.34;99447.88;5032122;28;20060;-79
2022/11/09 06:08:13;;;;;;;2.92;1.40;;;;;;;15.41;64.62;99452.84;5032742;28;20164;-79
2022/11/09 06:10:42;;;;;;;4.28;1.60;;;;;;;15.35;64.70;99445.06;5023701;28;20049;-79
2022/11/09 06:13:10;;;;;;;4.38;1.15;;;;;;;15.35;63.64;99443.09;5031769;28;20054;-79
2022/11/09 06:15:38;;;;;;;4.78;1.48;;;;;;;15.20;63.70;99436.41;5029585;28;20482;-79
2022/11/09 06:18:05;;;;;;;5.85;1.77;;;;;;;15.26;64.28;99434.09;5033002;28;20065;-79
2022/11/09 06:20:34;;;;;;;5.82;1.40;;;;;;;15.20;62.84;99436.41;5032013;28;20061;-79
2022/11/09 06:23:02;;;;;;;3.13;1.17;;;;;;;15.18;61.84;99444.38;5032353;28;20060;-79
2022/11/09 06:25:31;;;;;;;1.92;1.08;;;;;;;15.19;62.12;99442.38;5032055;28;20538;-79
2022/11/09 06:27:58;;;;;;;5.10;1.60;;;;;;;15.21;61.91;99448.44;5030888;28;20391;-80
2022/11/09 06:30:26;;;;;;;3.88;1.20;;;;;;;15.17;61.84;99456.75;5031787;28;20498;-79
2022/11/09 06:32:59;;;;;;;5.55;1.63;;;;;;;15.18;61.32;99455.59;5031193;28;20382;-79
2022/11/09 06:35:26;;;;;;;4.38;1.75;;;;;;;15.16;61.46;99457.97;5029333;28;20474;-79
2022/11/09 06:37:57;;;;;;;2.63;0.90;;;;;;;15.14;62.02;99467.91;5030770;28;20532;-79
2022/11/09 06:40:25;;;;;;;3.60;1.17;;;;;;;15.09;62.52;99459.81;5026110;28;20053;-80
2022/11/09 06:42:55;;;;;;;2.50;1.10;;;;;;;15.08;63.99;99463.81;5025992;28;20504;-79
2022/11/09 06:45:23;;;;;;;5.35;1.35;;;;;;;15.00;65.42;99472.06;5031324;28;20413;-80
2022/11/09 06:47:50;;;;;;;3.47;1.10;;;;;;;15.14;64.30;99474.34;5018549;28;20058;-78
2022/11/09 06:50:18;;;;;;;4.35;1.58;;;;;;;14.94;65.81;99469.91;5028238;28;20498;-79
2022/11/09 06:52:45;;;;;;;4.75;1.10;;;;;;;15.08;67.79;99477.81;5030945;28;20068;-78
2022/11/09 06:55:14;;;;;;;5.57;1.20;;;;;;;14.98;67.84;99477.22;5029600;28;20057;-78
2022/11/09 06:57:41;;;;;;;3.47;1.17;;;;;;;14.97;68.40;99467.19;5028516;28;20059;-80
2022/11/09 07:00:10;;;;;;;4.38;1.40;;;;;;;14.82;69.78;99465.25;5014640;28;20050;-77
2022/11/09 07:02:37;;;;;;;7.70;1.83;;;;;;;14.56;72.71;99479.91;5029787;28;20506;-77
2022/11/09 07:05:05;;;;;;;4.88;1.52;;;;;;;14.25;74.02;99473.16;5030168;28;20056;-79
2022/11/09 07:07:32;;;;;;;4.60;1.80;;;;;;;14.01;75.13;99474.19;5030664;28;20045;-78
2022/11/09 07:10:00;;;;;;;5.55;1.63;;;;;;;14.10;75.97;99496.41;5029126;28;20049;-78
2022/11/09 07:12:28;;;;;;;5.55;1.90;;;;;;;14.02;74.74;99479.41;5020791;28;20054;-78
2022/11/09 07:14:56;;;;;;;4.77;1.43;;;;;;;13.94;75.08;99482.38;5028206;28;20080;-78
2022/11/09 07:17:23;;;;;;;6.28;1.20;;;;;;;13.96;74.59;99485.63;5030767;28;20486;-78
2022/11/09 07:19:52;;;;;;;3.20;1.23;;;;;;;13.98;74.49;99486.94;5030060;28;20061;-78
2022/11/09 07:22:19;;;;;;;5.28;1.42;;;;;;;13.95;72.69;99490.44;5031170;28;20383;-78
2022/11/09 07:24:47;;;;;;;4.03;1.27;;;;;;;13.95;73.47;99487.63;5022987;28;20057;-79
2022/11/09 07:27:14;;;;;;;2.92;1.23;;;;;;;14.00;73.07;99484.53;5027020;28;20056;-78
2022/11/09 07:29:42;;;;;;;4.45;1.27;;;;;;;14.00;73.40;99486.53;5027954;28;20102;-77
2022/11/09 07:32:10;;;;;;;3.97;1.00;;;;;;;13.96;72.66;99491.25;4981127;28;1268858;-78
2022/11/09 07:34:37;;;;;;;4.40;1.10;;;;;;;13.86;72.88;99495.41;5029403;28;20060;-79
2022/11/09 07:37:04;;;;;;;3.95;1.00;;;;;;;13.89;73.65;99500.28;5029390;28;20049;-78
2022/11/09 07:39:31;;;;;;;3.38;0.90;;;;;;;13.91;73.24;99494.31;5031653;28;20053;-80
2022/11/09 07:41:58;;;;;;;2.97;0.95;;;;;;;13.84;74.06;99494.97;5033960;28;20061;-80
2022/11/09 07:44:26;;;;;;;2.80;0.80;;;;;;;13.94;73.03;99494.44;5027662;28;20058;-78
2022/11/09 07:46:55;;;;;;;4.35;0.80;;;;;;;13.96;73.43;99500.47;5032227;28;20056;-78
2022/11/09 07:49:22;;;;;;;2.07;0.83;;;;;;;13.98;72.14;99489.72;5032962;28;20057;-78
2022/11/09 07:51:49;;;;;;;2.53;0.90;;;;;;;14.04;71.53;99500.63;5034331;28;20490;-81
2022/11/09 07:54:16;;;;;;;1.77;0.70;;;;;;;14.13;71.25;99504.91;5035105;28;20065;-80
2022/11/09 07:56:44;;;;;;;3.08;0.80;;;;;;;14.26;70.73;99510.38;5034351;28;20140;-80
2022/11/09 07:59:11;;;;;;;4.22;0.80;;;;;;;14.38;70.66;99516.72;5035093;28;20068;-81
2022/11/09 08:01:38;;;;;;;2.42;0.77;;;;;;;14.51;69.54;99522.19;5016620;28;20061;-80
2022/11/09 08:04:07;;;;;;;2.42;0.90;;;;;;;14.46;69.01;99517.66;5034719;28;20068;-79
2022/11/09 08:06:34;;;;;;;2.53;0.80;;;;;;;14.54;69.55;99535.47;5032804;28;20474;-79
2022/11/09 08:09:02;;;;;;;2.13;0.90;;;;;;;14.61;68.64;99525.28;5025953;28;20054;-78
2022/11/09 08:11:29;;;;;;;2.63;0.95;;;;;;;14.74;68.34;99536.34;5031227;28;20473;-77
2022/11/09 08:13:56;;;;;;;1.80;0.85;;;;;;;14.98;67.90;99533.31;5008858;28;20065;-78
2022/11/09 08:16:24;;;;;;;2.08;0.95;;;;;;;16.11;65.24;99523.91;5013404;28;20050;-77
2022/11/09 08:18:51;;;;;;;1.58;0.77;;;;;;;16.73;61.42;99522.84;5015617;28;20053;-79
2022/11/09 08:21:20;;;;;;;2.30;1.00;;;;;;;17.49;60.25;99521.84;5010966;28;20619;-78
2022/11/09 08:23:49;;;;;;;2.30;1.10;;;;;;;18.10;57.29;99523.34;5020744;28;20064;-79
2022/11/09 08:26:16;;;;;;;2.43;1.10;;;;;;;19.17;54.21;99514.81;5016015;28;20061;-77
2022/11/09 08:28:44;;;;;;;2.30;0.90;;;;;;;19.39;53.53;99509.25;5016557;28;20049;-77
2022/11/09 08:31:12;;;;;;;1.63;0.70;;;;;;;19.76;52.40;99527.94;5014098;28;20061;-78
2022/11/09 08:33:41;;;;;;;1.85;0.90;;;;;;;18.58;54.74;99530.94;5021307;28;20502;-78
2022/11/09 08:36:10;;;;;;;2.58;0.90;;;;;;;18.05;56.48;99527.28;5010937;28;20085;-78
2022/11/09 08:38:40;;;;;;;2.28;0.90;;;;;;;17.63;58.15;99530.47;5019644;28;20057;-78
2022/11/09 08:41:08;;;;;;;1.83;0.82;;;;;;;17.45;58.32;99545.16;5017943;28;20057;-78
2022/11/09 08:43:36;;;;;;;3.97;1.13;;;;;;;17.84;57.84;99535.53;5022012;28;20054;-78
2022/11/09 08:46:03;;;;;;;3.58;1.20;;;;;;;20.11;51.74;99530.00;5012872;28;20058;-79
2022/11/09 08:48:31;;;;;;;3.28;0.80;;;;;;;20.11;51.28;99535.66;5017326;28;20612;-78
2022/11/09 08:51:00;;;;;;;2.88;1.23;;;;;;;19.65;52.52;99534.38;5016227;28;20045;-78
2022/11/09 08:53:29;;;;;;;3.05;1.10;;;;;;;20.88;49.84;99526.78;5019167;28;20053;-79
2022/11/09 08:55:59;;;;;;;3.20;0.93;;;;;;;23.05;44.24;99533.53;5019367;28;20060;-78
2022/11/09 08:58:26;;;;;;;3.63;1.00;;;;;;;24.28;42.10;99525.78;5018240;28;20046;-79
2022/11/09 09:00:54;;;;;;;3.42;1.10;;;;;;;24.56;40.72;99515.16;5016039;28;20058;-78
2022/11/09 09:03:21;;;;;;;3.45;1.20;;;;;;;25.84;38.26;99516.69;5022579;28;20068;-77
2022/11/09 09:05:48;;;;;;;2.85;1.02;;;;;;;26.82;36.71;99515.16;5011328;28;20061;-77
2022/11/09 09:08:20;;;;;;;2.20;0.85;;;;;;;27.49;35.58;99517.38;5014049;28;20061;-78
2022/11/09 09:10:47;;;;;;;1.95;1.17;;;;;;;27.56;35.54;99527.81;5013361;28;20057;-76
2022/11/09 09:13:18;;;;;;;1.60;0.80;;;;;;;26.74;36.33;99528.81;5011775;28;20371;-75
2022/11/09 09:15:45;;;;;;;2.45;1.35;;;;;;;25.08;39.36;99534.56;5011333;28;20061;-76
2022/11/09 09:18:12;;;;;;;2.25;0.93;;;;;;;25.58;38.01;99537.66;5010020;28;20064;-77
2022/11/09 09:20:40;;;;;;;3.60;1.05;;;;;;;26.85;35.59;99531.41;5016866;28;20080;-76
2022/11/09 09:23:07;;;;;;;2.65;1.30;;;;;;;25.06;37.97;99531.34;5017681;28;20050;-78
2022/11/09 09:25:35;;;;;;;3.10;1.20;;;;;;;26.19;37.08;99531.41;5013709;28;20061;-78
2022/11/09 09:28:02;;;;;;;2.38;1.00;;;;;;;25.48;37.94;99531.75;5015304;28;20062;-77
2022/11/09 09:30:31;;;;;;;3.22;1.20;;;;;;;25.58;38.18;99541.31;5020571;28;20066;-78
2022/11/09 09:32:59;;;;;;;2.35;1.10;;;;;;;24.77;38.99;99536.75;5013066;28;20060;-78
2022/11/09 09:35:27;;;;;;;2.58;1.30;;;;;;;25.55;38.35;99547.09;5015137;28;20049;-80
2022/11/09 09:37:56;;;;;;;3.97;1.67;;;;;;;25.56;38.18;99545.88;5012350;28;20073;-79
2022/11/09 09:40:26;;;;;;;;;;;;;;;25.44;38.16;99545.28;5019333;28;20362;-79
2022/11/09 09:42:54;;;;;;;3.15;1.35;;;;;;;26.06;37.31;99539.88;5009072;28;19932;-78
2022/11/09 09:45:26;;;;;;;2.55;1.20;;;;;;;26.66;35.47;99533.91;5011686;28;20072;-79
2022/11/09 09:48:00;;;;;;;2.22;1.10;;;;;;;27.83;33.33;99538.84;5010648;28;20525;-76
2022/11/09 09:50:31;;;;;;;3.28;1.50;;;;;;;28.24;32.89;99537.16;5012835;28;20061;-78
2022/11/09 09:53:03;;;;;;;3.60;1.10;;;;;;;28.84;31.75;99534.31;5009736;28;20058;-77
2022/11/09 09:55:37;;;;;;;3.17;1.00;;;;;;;28.57;32.42;99548.38;5009522;28;20065;-79
2022/11/09 09:58:11;;;;;;;2.70;1.30;;;;;;;29.31;31.23;99532.66;5020651;28;20056;-77
2022/11/09 10:00:40;;;;;;;2.72;1.10;;;;;;;29.99;30.23;99540.75;5011260;28;20068;-78
2022/11/09 10:03:15;;;;;;;3.78;1.30;;;;;;;28.24;32.36;99537.16;5013865;28;20062;-86
2022/11/09 10:05:49;;;;;;;2.78;1.13;;;;;;;28.33;30.85;99552.38;5021968;28;20065;-81
2022/11/09 10:08:25;;;;;;;1.85;1.05;;;;;;;28.76;31.34;99541.56;5012768;28;20073;-83
2022/11/09 10:11:05;;;;;;;2.95;1.20;;;;;;;28.57;32.14;99549.19;5015207;28;20468;-79
2022/11/09 10:14:01;;;;;;;4.25;1.30;;;;;;;27.67;32.93;99568.31;5014443;28;20069;-79
2022/11/09 10:16:39;;;;;;;2.40;1.23;;;;;;;27.16;33.80;99550.97;5019001;28;20068;-79
2022/11/09 10:19:30;;;;;;;2.58;1.17;;;;;;;26.17;35.74;99559.59;5016944;28;20054;-80
2022/11/09 10:22:05;;;;;;;3.90;1.30;;;;;;;26.15;35.86;99562.09;5015969;28;20058;-79
2022/11/09 10:24:43;;;;;;;3.20;1.58;;;;;;;24.85;37.38;99555.34;5017078;28;20060;-78
2022/11/09 10:27:25;;;;;;;3.15;1.20;;;;;;;23.93;38.78;99554.78;5019838;28;20395;-79
2022/11/09 10:29:54;;;;;;;3.33;1.30;;;;;;;23.84;39.53;99561.81;4998261;28;20058;-79
2022/11/09 10:32:23;;;;;;;2.60;1.23;;;;;;;24.65;38.04;99555.31;5010202;28;20431;-79
2022/11/09 10:34:55;;;;;;;2.25;1.15;;;;;;;23.72;39.08;99559.50;5018706;28;20065;-79
2022/11/09 10:37:28;;;;;;;4.90;1.30;;;;;;;24.66;37.98;99571.13;5018276;28;20076;-79
2022/11/09 10:40:11;;;;;;;2.20;1.02;;;;;;;23.79;38.08;99573.66;5019244;28;20061;-79
2022/11/09 10:42:39;;;;;;;3.90;1.15;;;;;;;23.46;39.44;99561.88;5015874;28;20061;-78
2022/11/09 10:45:13;;;;;;;4.25;1.58;;;;;;;23.90;37.56;99577.16;5013605;28;20065;-78
2022/11/09 10:47:51;;;;;;;3.05;1.25;;;;;;;22.88;38.50;99581.53;5011004;28;20054;-78
2022/11/09 10:50:27;;;;;;;2.78;1.17;;;;;;;22.12;40.06;99605.22;5013220;28;20045;-78
2022/11/09 10:53:08;;;;;;;2.80;1.00;;;;;;;22.30;39.96;99574.75;5008289;28;20062;-77
2022/11/09 10:55:36;;;;;;;3.58;1.60;;;;;;;22.65;39.14;99581.34;5010821;28;20056;-79
2022/11/09 10:58:20;;;;;;;1.95;1.00;;;;;;;23.43;37.42;99576.91;5016537;28;20084;-78
2022/11/09 11:01:03;;;;;;;2.58;1.10;;;;;;;22.82;37.68;99579.56;5015342;28;20060;-78
2022/11/09 11:03:32;;;;;;;3.03;1.15;;;;;;;23.60;36.81;99600.69;5017014;28;20065;-79
2022/11/09 11:06:02;;;;;;;4.25;1.20;;;;;;;24.17;35.96;99578.41;5016930;28;20495;-79
2022/11/09 11:08:36;;;;;;;3.17;1.17;;;;;;;24.05;36.00;99582.66;5009390;28;20067;-81
2022/11/09 11:11:08;;;;;;;3.00;1.20;;;;;;;23.47;36.30;99577.66;5014503;28;20061;-82
2022/11/09 11:13:36;;;;;;;4.07;1.60;;;;;;;22.87;37.86;99587.66;5015808;28;20077;-82
2022/11/09 11:16:14;;;;;;;2.88;1.20;;;;;;;23.26;37.21;99583.63;5022307;28;21290;-82
2022/11/09 11:18:46;;;;;;;2.67;1.40;;;;;;;23.14;36.26;99592.66;5020244;28;20046;-79
2022/11/09 11:21:17;;;;;;;2.35;1.70;;;;;;;22.69;37.09;99588.59;5012959;28;21024;-80
2022/11/09 11:23:44;;;;;;;4.57;1.67;;;;;;;22.25;40.69;99607.19;5017268;28;20515;-82
2022/11/09 11:26:28;;;;;;;3.65;1.40;;;;;;;21.17;40.71;99606.81;5015332;28;20058;-79
2022/11/09 11:29:00;;;;;;;3.25;1.65;;;;;;;22.56;38.12;99607.38;5020840;28;20057;-83
2022/11/09 11:31:28;;;;;;;3.63;1.38;;;;;;;23.39;37.10;99604.59;5019342;28;20430;-83
2022/11/09 11:33:56;;;;;;;5.45;1.63;;;;;;;21.81;38.38;99605.78;5017364;28;20053;-79
2022/11/09 11:36:51;;;;;;;3.03;1.42;;;;;;;22.29;36.75;99625.00;5018570;28;20057;-82
2022/11/09 11:39:33;;;;;;;4.80;1.65;;;;;;;21.80;37.50;99603.38;5015367;28;20487;-79
2022/11/09 11:42:25;;;;;;;2.35;1.10;;;;;;;22.19;36.80;99608.81;5016360;28;20061;-80
2022/11/09 11:45:07;;;;;;;2.38;1.65;;;;;;;22.90;35.67;99609.50;5017030;28;20511;-79
2022/11/09 11:47:42;;;;;;;2.72;1.73;;;;;;;22.78;35.11;99604.34;5015779;28;20061;-79
2022/11/09 11:50:40;;;;;;;3.05;1.60;;;;;;;22.28;36.15;99609.19;5018686;28;20057;-78
2022/11/09 11:53:22;;;;;;;2.00;1.10;;;;;;;22.25;36.04;99612.06;4995902;28;21559;-79
2022/11/09 11:56:08;;;;;;;2.97;1.45;;;;;;;21.73;37.30;99615.53;5016284;28;20046;-79